Dayton, Indiana
Current Conditions -  °F | °C
As of 2:54 PM on Thursday 23 Oct 2014 (Local Time) from KLAF Reporting Station
Clear Clear  
Wind Chill: 56°   Ceiling: Unl
Heat Index: 56°   Visibility: 10mi
Dew Point: 39°   Wind: 5mph
Humidity: 53%   Direction: 250°WSW
Pressure: 30.17"   Gusts: NA
Location:  40.37°N, 86.77°W
Report Text: KLAF 231854Z 25004KT 10SM CLR 13/04 A3017 RMK AO2 SLP216 T01330039
Loading
Personal Weather Stations






























Interactive Weather Map
Tropical Storm Tracking
New forecast layout! Learn more

10-Day Weather Forecast

Advertisements
Track Severe Weather on mobile